Time;durP1;ratioP1;P1;durP2;ratioP2;P2;SDS_P1;SDS_P2;PMS_P1;PMS_P2;Temp;Humidity;BMP_temperature;BMP_pressure;BME280_temperature;BME280_humidity;BME280_pressure;Samples;Min_cycle;Max_cycle;Signal;HPM_P1;HPM_P2
2022/01/08 00:00:06;;;;;;;9.07;7.30;;;-2.70;96.60;;;;;;5075465;28;20307;-80
2022/01/08 00:02:32;;;;;;;7.67;6.63;;;-2.80;96.50;;;;;;5093717;28;20515;-80
2022/01/08 00:04:59;;;;;;;8.37;6.50;;;-2.80;96.60;;;;;;5093190;28;20180;-80
2022/01/08 00:07:26;;;;;;;10.67;8.27;;;-2.90;96.60;;;;;;5092822;28;20197;-80
2022/01/08 00:09:51;;;;;;;11.00;7.07;;;-3.00;96.70;;;;;;5093453;28;20174;-80
2022/01/08 00:12:17;;;;;;;8.23;7.17;;;-2.90;96.80;;;;;;5075186;28;20173;-80
2022/01/08 00:14:43;;;;;;;8.17;7.37;;;-2.90;96.80;;;;;;5093454;28;20166;-80
2022/01/08 00:17:09;;;;;;;12.60;8.07;;;-2.80;96.80;;;;;;5093410;28;20205;-81
2022/01/08 00:19:34;;;;;;;10.13;7.40;;;-2.80;96.90;;;;;;5093468;28;20642;-80
2022/01/08 00:22:00;;;;;;;9.37;7.73;;;-2.70;96.80;;;;;;5093369;28;20626;-80
2022/01/08 00:24:26;;;;;;;11.17;7.63;;;-2.60;96.80;;;;;;5093139;28;20170;-80
2022/01/08 00:26:52;;;;;;;10.60;8.27;;;-2.50;96.80;;;;;;5092367;28;20182;-80
2022/01/08 00:29:17;;;;;;;9.60;7.43;;;-2.50;96.90;;;;;;5075275;28;20178;-82
2022/01/08 00:31:43;;;;;;;10.77;7.80;;;-2.50;96.60;;;;;;5093312;28;20178;-80
2022/01/08 00:34:09;;;;;;;10.37;7.50;;;-2.40;96.90;;;;;;5075276;28;20219;-81
2022/01/08 00:36:34;;;;;;;10.27;7.17;;;-2.40;96.70;;;;;;5092921;28;20226;-80
2022/01/08 00:39:00;;;;;;;10.50;7.67;;;-2.50;96.70;;;;;;5075509;28;20170;-80
2022/01/08 00:41:26;;;;;;;12.70;8.00;;;-2.50;96.90;;;;;;5095723;28;20542;-80
2022/01/08 00:43:52;;;;;;;11.43;8.90;;;-2.50;96.70;;;;;;5087864;28;20261;-80
2022/01/08 00:46:18;;;;;;;11.30;8.17;;;-2.50;96.60;;;;;;5096447;28;20265;-80
2022/01/08 00:48:44;;;;;;;12.17;8.23;;;-2.60;96.60;;;;;;5092699;28;20704;-81
2022/01/08 00:51:11;;;;;;;12.17;8.23;;;-2.70;96.70;;;;;;5093124;28;20235;-81
2022/01/08 00:53:37;;;;;;;12.33;8.20;;;-2.70;96.90;;;;;;5093033;28;20174;-80
2022/01/08 00:56:03;;;;;;;12.97;8.90;;;-2.70;96.70;;;;;;5092773;28;20747;-80
2022/01/08 00:58:30;;;;;;;12.70;8.90;;;-2.70;96.70;;;;;;5093221;28;20222;-80
2022/01/08 01:00:56;;;;;;;11.93;9.33;;;-2.80;96.80;;;;;;5092870;28;20209;-80
2022/01/08 01:03:22;;;;;;;12.63;9.73;;;-2.80;96.80;;;;;;5074689;28;20189;-80
2022/01/08 01:05:48;;;;;;;12.13;9.03;;;-2.80;97.00;;;;;;5092320;28;20291;-81
2022/01/08 01:08:14;;;;;;;11.70;9.10;;;-2.80;97.10;;;;;;5092488;28;20196;-80
2022/01/08 01:10:40;;;;;;;12.03;9.57;;;-2.80;97.20;;;;;;5092739;28;20696;-80
2022/01/08 01:13:06;;;;;;;13.00;8.93;;;-2.80;97.20;;;;;;5092799;28;20177;-80
2022/01/08 01:15:31;;;;;;;12.23;9.17;;;-2.80;97.20;;;;;;5092572;28;20681;-80
2022/01/08 01:17:57;;;;;;;12.13;9.03;;;-2.80;97.10;;;;;;5092888;28;20257;-80
2022/01/08 01:20:23;;;;;;;13.20;8.87;;;-2.80;97.10;;;;;;5092826;28;20174;-80
2022/01/08 01:23:04;;;;;;;10.87;8.87;;;-2.90;97.10;;;;;;5092615;28;20538;-80
2022/01/08 01:25:36;;;;;;;9.80;8.27;;;-3.00;97.10;;;;;;5073916;28;20186;-80
2022/01/08 01:28:16;;;;;;;11.33;8.30;;;-2.90;97.10;;;;;;5074125;28;20306;-80
2022/01/08 01:49:16;;;;;;;11.23;7.80;;;-3.00;97.40;;;;;;5093123;28;20177;-81
2022/01/08 01:51:42;;;;;;;9.63;7.53;;;-3.10;97.40;;;;;;5093380;28;20174;-81
2022/01/08 01:54:08;;;;;;;9.47;7.90;;;-3.00;97.40;;;;;;5092285;28;20170;-80
2022/01/08 01:56:35;;;;;;;8.87;6.77;;;-2.90;97.40;;;;;;5092284;28;20208;-81
2022/01/08 01:59:01;;;;;;;10.10;7.50;;;-3.00;97.50;;;;;;5092510;28;20176;-81
2022/01/08 02:01:27;;;;;;;9.70;7.40;;;-3.00;97.60;;;;;;5095871;28;20178;-80
2022/01/08 02:03:53;;;;;;;8.83;7.60;;;-2.90;97.70;;;;;;5095874;28;20202;-80
2022/01/08 02:06:20;;;;;;;8.50;7.57;;;-2.90;97.50;;;;;;5095068;28;20181;-80
2022/01/08 02:08:46;;;;;;;9.80;7.40;;;-3.00;97.70;;;;;;5095439;28;20182;-81
2022/01/08 02:11:12;;;;;;;13.27;7.97;;;-2.90;97.80;;;;;;5077394;28;20207;-81
2022/01/08 02:13:38;;;;;;;8.80;7.00;;;-2.90;97.90;;;;;;5095582;28;20171;-80
2022/01/08 02:16:06;;;;;;;11.03;6.97;;;-2.80;97.80;;;;;;5095666;28;20211;-80
2022/01/08 02:18:34;;;;;;;10.73;7.70;;;-2.80;97.50;;;;;;5095703;28;20176;-81
2022/01/08 02:21:01;;;;;;;8.37;6.77;;;-2.80;97.60;;;;;;5095339;28;20268;-80
2022/01/08 02:23:27;;;;;;;8.30;7.07;;;-2.70;97.50;;;;;;5095680;28;20587;-81
2022/01/08 02:26:07;;;;;;;10.00;7.27;;;-2.70;97.60;;;;;;5094980;28;20174;-80
2022/01/08 02:28:34;;;;;;;9.17;7.63;;;-2.60;97.50;;;;;;5077025;28;20178;-80
2022/01/08 02:31:00;;;;;;;9.30;7.17;;;-2.60;97.50;;;;;;5095682;28;20521;-80
2022/01/08 02:33:27;;;;;;;8.97;7.53;;;-2.60;97.40;;;;;;5095683;28;20637;-80
2022/01/08 02:35:53;;;;;;;12.37;7.77;;;-2.50;97.40;;;;;;5097616;28;20256;-79
2022/01/08 02:38:19;;;;;;;10.27;7.03;;;-2.40;97.30;;;;;;5104711;28;20177;-80
2022/01/08 02:41:00;;;;;;;10.57;7.43;;;-2.30;97.40;;;;;;5104387;28;20185;-80
2022/01/08 02:43:28;;;;;;;9.20;6.90;;;-2.40;97.20;;;;;;5095367;28;20146;-80
2022/01/08 02:45:54;;;;;;;8.37;6.70;;;-2.40;97.20;;;;;;5094631;28;20177;-80
2022/01/08 02:48:20;;;;;;;11.47;7.23;;;-2.40;97.00;;;;;;5094966;28;20251;-81
2022/01/08 02:50:46;;;;;;;9.60;7.60;;;-2.30;97.10;;;;;;5095149;28;20198;-81
2022/01/08 02:53:12;;;;;;;10.40;7.20;;;-2.30;97.20;;;;;;5095070;28;20198;-80
2022/01/08 02:55:38;;;;;;;10.40;7.00;;;-2.30;96.90;;;;;;5095019;28;20289;-80
2022/01/08 02:58:04;;;;;;;9.77;7.60;;;-2.30;96.80;;;;;;5094961;28;20228;-81
2022/01/08 03:00:30;;;;;;;10.10;6.70;;;-2.30;97.00;;;;;;5094968;28;20167;-80
2022/01/08 03:02:56;;;;;;;10.50;7.67;;;-2.30;96.70;;;;;;5095029;28;20185;-81
2022/01/08 03:05:22;;;;;;;8.13;7.13;;;-2.30;96.70;;;;;;5094219;28;20174;-80
2022/01/08 03:07:49;;;;;;;9.63;6.93;;;-2.30;96.90;;;;;;5076122;28;20181;-80
2022/01/08 03:10:16;;;;;;;9.13;7.47;;;-2.30;96.80;;;;;;5094521;28;20171;-80
2022/01/08 03:12:43;;;;;;;9.53;7.23;;;-2.30;97.00;;;;;;5094719;28;20194;-80
2022/01/08 03:15:16;;;;;;;10.67;7.50;;;-2.30;97.00;;;;;;5094612;28;20176;-81
2022/01/08 03:17:42;;;;;;;12.17;7.37;;;-2.30;97.10;;;;;;5094553;28;20260;-80
2022/01/08 03:20:12;;;;;;;10.13;7.20;;;-2.20;97.20;;;;;;5094574;28;20185;-80
2022/01/08 03:22:39;;;;;;;10.03;7.53;;;-2.20;97.30;;;;;;5094400;28;20178;-80
2022/01/08 03:25:06;;;;;;;8.67;6.70;;;-2.20;97.20;;;;;;5076066;28;20187;-80
2022/01/08 03:27:33;;;;;;;11.27;7.53;;;-2.30;97.40;;;;;;5075423;28;20533;-79
2022/01/08 03:29:59;;;;;;;8.73;6.87;;;-2.20;97.60;;;;;;5094320;28;20177;-81
2022/01/08 03:32:24;;;;;;;9.43;7.13;;;-2.20;97.60;;;;;;5094247;28;20171;-79
2022/01/08 03:34:51;;;;;;;10.70;7.47;;;-2.10;97.70;;;;;;5075836;28;20590;-80
2022/01/08 03:37:17;;;;;;;12.43;7.43;;;-2.00;97.70;;;;;;5094151;28;20559;-79
2022/01/08 03:39:42;;;;;;;8.97;6.90;;;-2.00;97.60;;;;;;5094191;28;20253;-79
2022/01/08 03:42:08;;;;;;;8.47;6.80;;;-2.00;97.70;;;;;;5094115;28;20248;-79
2022/01/08 03:44:34;;;;;;;11.43;7.07;;;-1.90;97.80;;;;;;5094138;28;20174;-79
2022/01/08 03:47:22;;;;;;;11.03;7.27;;;-1.80;97.80;;;;;;5093099;28;20182;-79
2022/01/08 03:49:46;;;;;;;9.57;8.33;;;-1.80;97.70;;;;;;5093742;28;20294;-79
2022/01/08 03:52:12;;;;;;;10.67;8.27;;;-1.80;97.90;;;;;;5075809;28;20186;-79
2022/01/08 03:54:39;;;;;;;12.33;9.67;;;-1.90;97.80;;;;;;5093910;28;20265;-79
2022/01/08 03:57:05;;;;;;;12.97;9.77;;;-1.90;98.00;;;;;;5093662;28;20433;-79
2022/01/08 03:59:31;;;;;;;12.53;9.33;;;-2.00;98.10;;;;;;5093700;28;20282;-79
2022/01/08 04:01:57;;;;;;;13.60;10.40;;;-1.90;98.00;;;;;;5093880;28;20709;-79
2022/01/08 04:04:23;;;;;;;14.97;10.23;;;-1.80;97.70;;;;;;5093618;28;20672;-79
2022/01/08 04:06:49;;;;;;;14.07;10.87;;;-1.80;97.70;;;;;;5092905;28;20183;-79
2022/01/08 04:09:15;;;;;;;14.17;10.40;;;-2.00;97.90;;;;;;5093647;28;20177;-79
2022/01/08 04:11:40;;;;;;;16.40;10.67;;;-1.90;98.10;;;;;;5093698;28;20167;-79
2022/01/08 04:14:06;;;;;;;15.17;10.47;;;-1.90;97.90;;;;;;5093569;28;20213;-79
2022/01/08 04:16:35;;;;;;;14.43;10.70;;;-1.90;98.00;;;;;;5093522;28;20206;-79
2022/01/08 04:19:01;;;;;;;13.63;10.03;;;-1.80;98.00;;;;;;5093633;28;20162;-80
2022/01/08 04:24:05;;;;;;;13.97;10.43;;;-1.90;98.00;;;;;;5094392;28;20199;-79
2022/01/08 04:26:31;;;;;;;15.67;10.60;;;-1.80;98.00;;;;;;5094285;28;20178;-79
2022/01/08 04:28:58;;;;;;;16.27;10.83;;;-1.80;98.00;;;;;;5095441;28;20646;-79
2022/01/08 04:31:25;;;;;;;14.50;10.20;;;-1.80;98.20;;;;;;5102090;28;20174;-79
2022/01/08 04:33:52;;;;;;;13.77;10.73;;;-1.80;98.20;;;;;;5110537;28;20171;-80
2022/01/08 04:36:18;;;;;;;15.97;11.30;;;-1.70;98.20;;;;;;5095175;28;20253;-79
2022/01/08 04:38:44;;;;;;;16.73;10.70;;;-1.80;98.20;;;;;;5093259;28;20617;-79
2022/01/08 04:41:10;;;;;;;14.17;10.20;;;-1.80;98.30;;;;;;5093298;28;20178;-81
2022/01/08 04:43:37;;;;;;;14.13;10.27;;;-1.80;98.10;;;;;;5093165;28;20158;-80
2022/01/08 04:46:04;;;;;;;13.83;10.03;;;-1.70;97.80;;;;;;5092726;28;20170;-80
2022/01/08 04:48:30;;;;;;;13.47;9.33;;;-1.80;97.70;;;;;;5092894;28;20529;-79
2022/01/08 04:50:56;;;;;;;15.60;10.23;;;-1.80;97.80;;;;;;5093090;28;20174;-79
2022/01/08 04:53:22;;;;;;;11.80;9.93;;;-1.80;97.80;;;;;;5093075;28;20178;-80
2022/01/08 04:55:48;;;;;;;13.70;10.03;;;-1.80;97.90;;;;;;5092937;28;20203;-80
2022/01/08 04:58:14;;;;;;;16.77;10.73;;;-1.70;97.90;;;;;;5074815;28;20185;-80
2022/01/08 05:00:39;;;;;;;15.60;10.50;;;-1.70;97.80;;;;;;5092947;28;20260;-79
2022/01/08 05:03:05;;;;;;;16.17;10.13;;;-1.80;97.90;;;;;;5074999;28;20189;-79
2022/01/08 05:05:31;;;;;;;16.83;10.47;;;-1.80;98.00;;;;;;5092475;28;20247;-79
2022/01/08 05:07:57;;;;;;;16.60;10.20;;;-1.80;98.10;;;;;;5092698;28;20685;-80
2022/01/08 05:10:23;;;;;;;14.13;10.10;;;-1.80;98.00;;;;;;5074631;28;20262;-80
2022/01/08 05:12:49;;;;;;;19.33;11.33;;;-1.80;98.10;;;;;;5074765;28;20264;-80
2022/01/08 05:15:16;;;;;;;13.93;10.33;;;-1.90;98.10;;;;;;5092895;28;20198;-79
2022/01/08 05:17:43;;;;;;;14.57;10.17;;;-1.90;98.00;;;;;;5092872;28;20163;-81
2022/01/08 05:20:12;;;;;;;14.40;10.83;;;-1.90;98.10;;;;;;5092883;28;20243;-80
2022/01/08 05:25:18;;;;;;;13.33;10.53;;;-2.00;98.10;;;;;;5092726;28;20159;-79
2022/01/08 05:27:45;;;;;;;13.73;10.37;;;-2.00;98.20;;;;;;5091985;28;20177;-80
2022/01/08 05:30:12;;;;;;;11.17;9.70;;;-2.10;98.40;;;;;;5092810;28;20634;-79
2022/01/08 05:32:38;;;;;;;16.97;12.07;;;-2.00;98.50;;;;;;5092728;28;20576;-79
2022/01/08 05:35:04;;;;;;;18.80;11.13;;;-2.00;98.60;;;;;;5094445;28;20225;-79
2022/01/08 05:37:30;;;;;;;17.13;10.80;;;-2.10;98.50;;;;;;5096412;28;20206;-79
2022/01/08 05:39:56;;;;;;;15.40;11.23;;;-2.10;98.50;;;;;;5096500;28;20162;-80
2022/01/08 05:42:22;;;;;;;17.37;10.90;;;-2.10;98.60;;;;;;5096412;28;20633;-79
2022/01/08 05:44:48;;;;;;;15.93;10.77;;;-2.20;98.50;;;;;;5096439;28;20216;-79
2022/01/08 05:47:14;;;;;;;18.90;11.27;;;-2.20;98.70;;;;;;5095666;28;20181;-79
2022/01/08 05:49:40;;;;;;;21.70;11.67;;;-2.20;98.80;;;;;;5096223;28;20171;-79
2022/01/08 05:52:07;;;;;;;15.53;11.27;;;-2.20;98.90;;;;;;5096304;28;20217;-79
2022/01/08 05:54:33;;;;;;;16.10;11.77;;;-2.20;98.90;;;;;;5096214;28;20180;-79
2022/01/08 05:57:00;;;;;;;16.50;10.67;;;-2.30;98.90;;;;;;5095963;28;20665;-79
2022/01/08 05:59:26;;;;;;;19.00;11.77;;;-2.30;99.00;;;;;;5096065;28;20187;-79
2022/01/08 06:01:56;;;;;;;18.63;10.77;;;-2.30;99.00;;;;;;5096133;28;20614;-79
2022/01/08 06:04:22;;;;;;;17.27;11.57;;;-2.30;99.10;;;;;;5096127;28;20179;-79
2022/01/08 06:06:48;;;;;;;19.33;11.60;;;-2.40;99.10;;;;;;5095484;28;20181;-79
2022/01/08 06:09:15;;;;;;;20.50;11.77;;;-2.40;99.20;;;;;;5095733;28;20170;-79
2022/01/08 06:11:40;;;;;;;19.63;11.67;;;-2.40;99.40;;;;;;5095925;28;20201;-80
2022/01/08 06:14:06;;;;;;;17.27;11.07;;;-2.40;99.30;;;;;;5096108;28;20167;-80
2022/01/08 06:16:35;;;;;;;19.13;12.13;;;-2.40;99.40;;;;;;5095887;28;20206;-82
2022/01/08 06:19:09;;;;;;;16.93;10.97;;;-2.40;99.30;;;;;;5096352;28;20570;-81
2022/01/08 06:21:36;;;;;;;21.77;12.00;;;-2.40;99.40;;;;;;5095872;28;20212;-81
2022/01/08 06:24:02;;;;;;;17.73;12.80;;;-2.40;99.50;;;;;;5097895;28;20171;-79
2022/01/08 06:26:28;;;;;;;18.17;12.00;;;-2.40;99.60;;;;;;5107892;28;20193;-80
2022/01/08 06:28:53;;;;;;;18.77;12.13;;;-2.40;99.60;;;;;;5113263;28;20170;-79
2022/01/08 06:31:20;;;;;;;23.77;12.20;;;-2.40;99.60;;;;;;5095741;28;20178;-79
2022/01/08 06:33:46;;;;;;;17.23;11.30;;;-2.40;99.60;;;;;;5095517;28;20171;-80
2022/01/08 06:36:13;;;;;;;17.53;12.33;;;-2.40;99.70;;;;;;5095209;28;20226;-80
2022/01/08 06:38:39;;;;;;;20.10;12.43;;;-2.50;99.80;;;;;;5095313;28;20177;-81
2022/01/08 06:41:04;;;;;;;17.10;11.07;;;-2.50;99.90;;;;;;5095356;28;20345;-79
2022/01/08 06:43:30;;;;;;;19.70;12.60;;;-2.50;99.90;;;;;;5095423;28;20232;-79
2022/01/08 06:45:56;;;;;;;16.60;11.83;;;-2.50;99.90;;;;;;5076587;28;20223;-81
2022/01/08 06:48:21;;;;;;;16.87;11.73;;;-2.50;99.90;;;;;;5094573;28;20179;-80
2022/01/08 06:50:48;;;;;;;15.17;10.43;;;-2.50;99.90;;;;;;5094918;28;20170;-79
2022/01/08 06:53:13;;;;;;;21.17;12.47;;;-2.50;99.90;;;;;;5094997;28;20220;-80
2022/01/08 06:55:39;;;;;;;17.20;11.53;;;-2.50;99.90;;;;;;5094999;28;20657;-79
2022/01/08 06:58:05;;;;;;;18.10;12.37;;;-2.40;99.90;;;;;;5094983;28;20170;-80
2022/01/08 07:00:31;;;;;;;18.43;12.80;;;-2.30;99.90;;;;;;5094974;28;20167;-80
2022/01/08 07:02:56;;;;;;;21.10;12.17;;;-2.40;99.90;;;;;;5095099;28;20170;-81
2022/01/08 07:05:22;;;;;;;19.40;12.50;;;-2.30;99.90;;;;;;5094632;28;20633;-79
2022/01/08 07:07:48;;;;;;;19.13;12.77;;;-2.20;99.90;;;;;;5094240;28;20580;-82
2022/01/08 07:10:14;;;;;;;17.17;12.43;;;-2.20;99.90;;;;;;5094301;28;20170;-79
2022/01/08 07:12:39;;;;;;;20.07;13.47;;;-2.10;99.90;;;;;;5094766;28;20175;-82
2022/01/08 07:15:07;;;;;;;19.40;12.20;;;-2.00;99.90;;;;;;5094017;28;20230;-82
2022/01/08 07:17:33;;;;;;;19.70;12.77;;;-1.90;99.90;;;;;;5094307;28;20229;-82
2022/01/08 07:19:59;;;;;;;18.30;12.67;;;-1.90;99.90;;;;;;5094592;28;20614;-80
2022/01/08 07:22:25;;;;;;;22.70;13.03;;;-1.80;99.90;;;;;;5094679;28;20178;-80
2022/01/08 07:24:50;;;;;;;24.40;12.77;;;-1.80;99.90;;;;;;5094517;28;20167;-80
2022/01/08 07:27:16;;;;;;;18.27;13.00;;;-1.70;99.80;;;;;;5093929;28;20185;-80
2022/01/08 07:29:42;;;;;;;17.47;13.27;;;-1.70;99.60;;;;;;5093949;28;20175;-80
2022/01/08 07:32:07;;;;;;;19.37;12.40;;;-1.80;99.60;;;;;;5094121;28;20171;-80
2022/01/08 07:34:33;;;;;;;20.53;11.70;;;-1.80;99.60;;;;;;5094068;28;20591;-80
2022/01/08 07:36:59;;;;;;;19.03;12.33;;;-1.70;99.70;;;;;;5094136;28;20210;-81
2022/01/08 07:39:24;;;;;;;17.40;11.87;;;-1.70;99.50;;;;;;5094125;28;20217;-80
2022/01/08 07:41:50;;;;;;;18.83;12.00;;;-1.70;99.80;;;;;;5094072;28;20167;-81
2022/01/08 07:44:16;;;;;;;17.63;11.47;;;-1.60;99.60;;;;;;5093975;28;20637;-82
2022/01/08 07:46:42;;;;;;;16.30;12.53;;;-1.70;99.40;;;;;;5075744;28;20189;-82
2022/01/08 07:49:09;;;;;;;22.67;13.27;;;-1.60;99.50;;;;;;5093591;28;20250;-82
2022/01/08 07:51:35;;;;;;;20.90;13.73;;;-1.60;99.50;;;;;;5094061;28;20655;-82
2022/01/08 07:54:00;;;;;;;21.50;13.17;;;-1.60;99.50;;;;;;5093969;28;20201;-82
2022/01/08 07:56:26;;;;;;;18.97;12.80;;;-1.60;99.50;;;;;;5093589;28;20199;-82
2022/01/08 07:58:52;;;;;;;19.53;12.50;;;-1.60;99.70;;;;;;5093502;28;20524;-81
2022/01/08 08:01:18;;;;;;;25.03;13.23;;;-1.50;99.70;;;;;;5093819;28;20194;-81
2022/01/08 08:03:44;;;;;;;22.27;13.53;;;-1.50;99.50;;;;;;5075629;28;20208;-82
2022/01/08 08:06:11;;;;;;;24.53;13.53;;;-1.40;99.30;;;;;;5093716;28;20174;-80
2022/01/08 08:08:36;;;;;;;21.23;13.13;;;-1.30;99.20;;;;;;5075199;28;20525;-80
2022/01/08 08:11:02;;;;;;;22.40;12.67;;;-1.20;99.20;;;;;;5093972;28;20181;-79
2022/01/08 08:13:28;;;;;;;21.57;13.20;;;-1.20;98.80;;;;;;5097675;28;20209;-79
2022/01/08 08:15:54;;;;;;;21.37;11.63;;;-1.20;98.80;;;;;;5094701;28;20202;-79
2022/01/08 08:18:20;;;;;;;18.43;12.13;;;-1.10;98.90;;;;;;5097774;28;20171;-79
2022/01/08 08:20:45;;;;;;;22.17;13.53;;;-1.10;98.90;;;;;;5097429;28;20174;-79
2022/01/08 08:23:11;;;;;;;19.53;13.30;;;-1.00;99.00;;;;;;5104736;28;20167;-80
2022/01/08 08:25:37;;;;;;;18.33;12.97;;;-0.90;99.10;;;;;;5104269;28;20227;-80
2022/01/08 08:28:04;;;;;;;20.43;12.83;;;-0.80;99.00;;;;;;5093238;28;20209;-79
2022/01/08 08:30:30;;;;;;;20.13;13.20;;;-0.80;98.90;;;;;;5093137;28;20162;-79
2022/01/08 08:32:55;;;;;;;20.03;12.33;;;-0.80;99.00;;;;;;5093444;28;20652;-79
2022/01/08 08:35:21;;;;;;;20.83;13.17;;;-0.70;98.90;;;;;;5091964;28;20273;-79
2022/01/08 08:37:47;;;;;;;21.53;13.13;;;-0.70;98.90;;;;;;5093338;28;20206;-79
2022/01/08 08:40:14;;;;;;;21.00;12.77;;;-0.60;98.90;;;;;;5093467;28;20167;-79
2022/01/08 08:42:41;;;;;;;23.47;12.57;;;-0.50;98.80;;;;;;5094030;28;20177;-80
2022/01/08 08:45:08;;;;;;;19.27;12.67;;;-0.50;98.70;;;;;;5094322;28;20174;-81
2022/01/08 08:47:34;;;;;;;21.33;12.53;;;-0.40;98.10;;;;;;5092653;28;20174;-80
2022/01/08 08:50:00;;;;;;;19.83;12.90;;;-0.30;98.10;;;;;;5093089;28;20194;-80
2022/01/08 08:52:26;;;;;;;23.10;13.57;;;-0.20;98.20;;;;;;5093276;28;20572;-80
2022/01/08 08:54:53;;;;;;;23.87;13.03;;;-0.20;98.00;;;;;;5093347;28;20171;-80
2022/01/08 08:57:19;;;;;;;20.17;12.47;;;-0.10;98.00;;;;;;5093542;28;20204;-80
2022/01/08 08:59:45;;;;;;;19.87;13.03;;;-0.10;98.20;;;;;;5094239;28;20170;-82
2022/01/08 09:02:11;;;;;;;17.77;13.27;;;-0.10;98.40;;;;;;5093615;28;20503;-80
2022/01/08 09:04:40;;;;;;;20.03;12.53;;;0.00;98.30;;;;;;5093723;28;20220;-82
2022/01/08 09:07:06;;;;;;;20.07;12.07;;;0.00;98.30;;;;;;5092816;28;20167;-80
2022/01/08 09:09:33;;;;;;;21.90;12.73;;;0.10;98.50;;;;;;5094731;28;20179;-81
2022/01/08 09:11:59;;;;;;;23.93;12.87;;;0.20;98.40;;;;;;5095628;28;20195;-81
2022/01/08 09:14:26;;;;;;;19.17;13.07;;;0.30;98.50;;;;;;5097444;28;20173;-82
2022/01/08 09:16:57;;;;;;;17.70;12.00;;;0.30;98.30;;;;;;5099216;28;20689;-82
2022/01/08 09:19:23;;;;;;;17.57;11.80;;;0.40;98.30;;;;;;5097584;28;20156;-81
2022/01/08 09:21:50;;;;;;;19.30;12.80;;;0.50;98.30;;;;;;5097128;28;20177;-82
2022/01/08 09:24:21;;;;;;;19.57;12.03;;;0.50;98.30;;;;;;5096009;28;20222;-81
2022/01/08 09:26:48;;;;;;;19.87;11.80;;;0.60;98.10;;;;;;5097111;28;20161;-82
2022/01/08 09:29:15;;;;;;;18.37;12.93;;;0.70;97.90;;;;;;5097040;28;20573;-81
2022/01/08 09:31:41;;;;;;;15.77;11.93;;;0.70;97.90;;;;;;5097002;28;20172;-81
2022/01/08 09:34:07;;;;;;;16.17;12.83;;;0.70;97.90;;;;;;5097411;28;20179;-82
2022/01/08 09:36:34;;;;;;;16.70;10.80;;;0.80;97.80;;;;;;5097233;28;20235;-81
2022/01/08 09:39:00;;;;;;;16.70;12.87;;;0.80;97.80;;;;;;5097128;28;20302;-82
2022/01/08 09:41:26;;;;;;;18.43;12.10;;;0.90;97.60;;;;;;5096645;28;20202;-85
2022/01/08 09:43:52;;;;;;;15.33;11.53;;;0.90;97.50;;;;;;5096591;28;20193;-82
2022/01/08 09:46:21;;;;;;;14.90;11.30;;;0.80;97.50;;;;;;5096567;28;20176;-86
2022/01/08 09:48:50;;;;;;;19.47;11.47;;;0.80;97.50;;;;;;5096387;28;20185;-81
2022/01/08 09:51:17;;;;;;;17.33;11.00;;;0.80;97.40;;;;;;5096778;28;20576;-80
2022/01/08 09:53:43;;;;;;;15.00;10.33;;;0.80;97.50;;;;;;5096484;28;20180;-80
2022/01/08 09:56:10;;;;;;;19.03;11.20;;;0.80;97.50;;;;;;5096168;28;20210;-82
2022/01/08 09:58:35;;;;;;;16.70;11.47;;;0.80;97.50;;;;;;5096237;28;20255;-81
2022/01/08 10:01:02;;;;;;;16.53;11.40;;;0.80;97.60;;;;;;5096083;28;20260;-80
2022/01/08 10:03:33;;;;;;;14.20;10.00;;;0.80;97.60;;;;;;5096112;28;20172;-81
2022/01/08 10:06:00;;;;;;;16.07;10.83;;;0.90;97.60;;;;;;5094753;28;20173;-82
2022/01/08 10:08:29;;;;;;;13.43;10.63;;;0.90;97.50;;;;;;5096007;28;20178;-82
2022/01/08 10:11:01;;;;;;;20.47;10.73;;;1.00;97.30;;;;;;5097332;28;20607;-82
2022/01/08 10:13:33;;;;;;;16.40;10.70;;;1.00;97.80;;;;;;5097857;28;20191;-80
2022/01/08 10:18:45;;;;;;;19.67;11.27;;;0.90;97.30;;;;;;5109396;28;20180;-81
2022/01/08 10:21:32;;;;;;;14.47;10.63;;;0.80;97.60;;;;;;5110267;28;20175;-79
2022/01/08 10:24:04;;;;;;;14.13;10.13;;;0.80;97.60;;;;;;5096538;28;20160;-79
2022/01/08 10:26:34;;;;;;;14.77;10.60;;;0.80;97.80;;;;;;5095581;28;20158;-80
2022/01/08 10:29:03;;;;;;;12.97;9.93;;;0.90;97.50;;;;;;5093355;28;20176;-80
2022/01/08 10:31:43;;;;;;;18.97;10.03;;;1.00;97.60;;;;;;5077464;28;20209;-81
2022/01/08 10:34:12;;;;;;;13.10;9.83;;;1.00;97.60;;;;;;5095657;28;20165;-81
2022/01/08 10:36:46;;;;;;;14.03;10.17;;;1.10;97.30;;;;;;5095261;28;20229;-80
2022/01/08 10:39:18;;;;;;;13.80;10.50;;;1.20;97.40;;;;;;5095862;28;20168;-80
2022/01/08 10:41:45;;;;;;;12.23;8.70;;;1.20;97.40;;;;;;5095570;28;20171;-81
2022/01/08 10:44:14;;;;;;;14.00;9.13;;;1.40;97.40;;;;;;5095471;28;20170;-81
2022/01/08 10:47:00;;;;;;;13.63;10.03;;;1.50;97.00;;;;;;5077244;28;20177;-80
2022/01/08 10:49:36;;;;;;;14.60;9.43;;;1.50;96.70;;;;;;5094601;28;20174;-80
2022/01/08 10:52:09;;;;;;;13.30;10.10;;;1.60;96.80;;;;;;5095313;28;20171;-81
2022/01/08 10:54:37;;;;;;;16.40;10.30;;;1.60;96.80;;;;;;5095173;28;20164;-81
2022/01/08 10:57:06;;;;;;;18.10;10.73;;;1.60;96.60;;;;;;5095125;28;20207;-81
2022/01/08 10:59:33;;;;;;;17.53;10.17;;;1.70;96.70;;;;;;5095188;28;20201;-81
2022/01/08 11:02:15;;;;;;;17.27;11.43;;;1.80;96.70;;;;;;5095027;28;20578;-81
2022/01/08 11:04:44;;;;;;;20.23;12.77;;;1.80;96.60;;;;;;5094863;28;20187;-81
2022/01/08 11:07:14;;;;;;;18.97;12.37;;;1.80;96.80;;;;;;5094734;28;20170;-81
2022/01/08 11:09:43;;;;;;;18.97;12.60;;;1.70;97.10;;;;;;5075874;28;20188;-80
2022/01/08 11:12:19;;;;;;;17.33;12.33;;;1.70;97.50;;;;;;5094716;28;20722;-80
2022/01/08 11:15:01;;;;;;;18.20;11.93;;;1.70;97.70;;;;;;5094860;28;20172;-81
2022/01/08 11:17:29;;;;;;;17.63;11.77;;;1.70;97.80;;;;;;5094607;28;20227;-82
2022/01/08 11:20:04;;;;;;;15.90;11.83;;;1.70;97.90;;;;;;5092587;28;20182;-83
2022/01/08 11:22:32;;;;;;;17.20;12.43;;;1.60;97.80;;;;;;5091129;28;20164;-83
2022/01/08 11:25:08;;;;;;;16.90;11.30;;;1.50;97.90;;;;;;5091118;28;20228;-81
2022/01/08 11:27:38;;;;;;;17.23;11.20;;;1.50;98.00;;;;;;5091239;28;20198;-82
2022/01/08 11:30:25;;;;;;;17.00;11.33;;;1.40;97.90;;;;;;5091124;28;20186;-81
2022/01/08 11:32:55;;;;;;;18.03;11.07;;;1.30;98.00;;;;;;5091010;28;20250;-82
2022/01/08 11:35:23;;;;;;;13.40;10.67;;;1.30;97.90;;;;;;5090894;28;20255;-82
2022/01/08 11:37:50;;;;;;;15.63;11.33;;;1.20;98.30;;;;;;5090774;28;20200;-82
2022/01/08 11:40:19;;;;;;;19.03;11.10;;;1.10;98.50;;;;;;5090798;28;20722;-82
2022/01/08 11:42:46;;;;;;;15.00;10.93;;;1.10;98.60;;;;;;5090818;28;20172;-82
2022/01/08 11:45:22;;;;;;;15.57;11.27;;;1.10;98.60;;;;;;5072569;28;20173;-82
2022/01/08 11:47:52;;;;;;;14.70;10.83;;;1.10;98.50;;;;;;5090636;28;20297;-82
2022/01/08 11:50:23;;;;;;;16.57;10.53;;;1.00;98.50;;;;;;5090570;28;20173;-80
2022/01/08 11:53:11;;;;;;;15.87;10.83;;;1.10;98.50;;;;;;5090635;28;20172;-82
2022/01/08 11:55:37;;;;;;;13.10;10.07;;;1.10;98.30;;;;;;5090739;28;20927;-83
2022/01/08 11:58:26;;;;;;;15.43;10.17;;;1.10;98.20;;;;;;5090738;28;20187;-82
2022/01/08 12:00:53;;;;;;;16.57;10.50;;;1.10;98.40;;;;;;5090781;28;20156;-82
2022/01/08 12:03:39;;;;;;;15.47;10.93;;;1.10;98.30;;;;;;5091087;28;20176;-82
2022/01/08 12:06:26;;;;;;;15.97;10.23;;;1.10;98.20;;;;;;5090628;28;20169;-81
2022/01/08 12:11:47;;;;;;;14.43;9.27;;;1.10;98.00;;;;;;5092266;28;20256;-82
2022/01/08 12:14:15;;;;;;;14.40;9.03;;;1.10;97.70;;;;;;5094738;28;20196;-82
2022/01/08 12:16:43;;;;;;;13.13;9.27;;;1.00;97.60;;;;;;5104824;28;20292;-81
2022/01/08 12:19:28;;;;;;;14.77;9.17;;;1.00;97.80;;;;;;5107918;28;20163;-81
2022/01/08 12:21:54;;;;;;;13.07;8.77;;;1.00;97.90;;;;;;5091383;28;20244;-82
2022/01/08 12:24:28;;;;;;;9.97;7.67;;;1.00;97.60;;;;;;5090270;28;20171;-81
2022/01/08 12:27:00;;;;;;;11.57;7.60;;;1.00;97.90;;;;;;5090372;28;20176;-81
2022/01/08 12:29:35;;;;;;;13.13;8.57;;;1.00;98.10;;;;;;5090325;28;20248;-81
2022/01/08 12:32:37;;;;;;;12.97;8.23;;;1.10;98.00;;;;;;5090332;28;20808;-81
2022/01/08 12:35:15;;;;;;;11.77;8.23;;;1.20;98.00;;;;;;5090093;28;20213;-81
2022/01/08 12:37:44;;;;;;;11.33;8.10;;;1.10;97.90;;;;;;5090052;28;20206;-83
2022/01/08 12:40:12;;;;;;;11.00;7.40;;;1.20;98.00;;;;;;5090426;28;20347;-83
2022/01/08 12:42:43;;;;;;;9.70;8.07;;;1.20;97.80;;;;;;5089593;28;20193;-82
2022/01/08 12:45:31;;;;;;;11.83;8.00;;;1.20;97.80;;;;;;5089796;28;20176;-83
2022/01/08 12:48:00;;;;;;;9.73;7.43;;;1.20;97.90;;;;;;5089837;28;20184;-81
2022/01/08 12:50:28;;;;;;;10.50;7.50;;;1.20;97.90;;;;;;5089927;28;20180;-82
2022/01/08 12:53:06;;;;;;;7.07;6.37;;;1.30;97.70;;;;;;5071660;28;20212;-82
2022/01/08 12:55:36;;;;;;;13.20;7.67;;;1.30;97.40;;;;;;5090002;28;20168;-83
2022/01/08 12:58:30;;;;;;;11.83;7.53;;;1.30;97.60;;;;;;5089913;28;20184;-82
2022/01/08 13:01:08;;;;;;;10.53;7.20;;;1.40;97.90;;;;;;5089889;28;20161;-81
2022/01/08 13:03:34;;;;;;;8.80;7.33;;;1.30;97.90;;;;;;5090106;28;20189;-82
2022/01/08 13:06:03;;;;;;;7.90;7.03;;;1.30;97.90;;;;;;5071748;28;20534;-81
2022/01/08 13:08:34;;;;;;;11.70;7.43;;;1.30;97.70;;;;;;5089825;28;20201;-81